Time;durP1;ratioP1;P1;durP2;ratioP2;P2;SDS_P1;SDS_P2;PMS_P1;PMS_P2;Temp;Humidity;BMP_temperature;BMP_pressure;BME280_temperature;BME280_humidity;BME280_pressure;Samples;Min_cycle;Max_cycle;Signal;HPM_P1;HPM_P2
2023/05/28 00:00:45;;;;;;;8.45;4.32;;;;;;;21.23;41.89;101982.28;5021195;28;20036;-68
2023/05/28 00:03:11;;;;;;;8.60;4.82;;;;;;;21.23;41.76;101973.50;5022931;28;20037;-68
2023/05/28 00:05:36;;;;;;;7.82;4.30;;;;;;;21.22;41.76;101983.28;5025165;28;20606;-67
2023/05/28 00:08:01;;;;;;;7.35;4.38;;;;;;;21.21;41.96;101978.91;5007747;28;20033;-67
2023/05/28 00:10:27;;;;;;;8.18;4.82;;;;;;;21.22;41.81;101974.44;5008053;28;20048;-68
2023/05/28 00:12:53;;;;;;;9.00;4.72;;;;;;;21.23;41.85;101970.84;5016010;28;20059;-67
2023/05/28 00:15:18;;;;;;;8.23;4.50;;;;;;;21.22;41.81;101974.44;5022136;28;20033;-68
2023/05/28 00:17:43;;;;;;;7.82;4.32;;;;;;;21.22;42.11;101966.50;5006483;28;20056;-68
2023/05/28 00:20:10;;;;;;;7.18;4.40;;;;;;;21.20;42.04;101958.66;5015559;28;20029;-69
2023/05/28 00:22:35;;;;;;;7.97;4.38;;;;;;;21.21;41.98;101963.00;5018920;28;20086;-67
2023/05/28 00:25:01;;;;;;;8.13;4.43;;;;;;;21.21;41.98;101965.66;5004857;28;20038;-67
2023/05/28 00:27:27;;;;;;;8.35;5.20;;;;;;;21.20;42.16;101958.66;5023857;28;20037;-68
2023/05/28 00:29:52;;;;;;;8.50;4.43;;;;;;;21.18;42.06;101958.78;5010784;28;20401;-67
2023/05/28 00:32:17;;;;;;;9.43;4.60;;;;;;;21.20;41.83;101958.66;5019921;28;20044;-67
2023/05/28 00:34:42;;;;;;;10.10;4.72;;;;;;;21.19;41.97;101955.19;5017121;28;20040;-67
2023/05/28 00:37:08;;;;;;;10.82;4.68;;;;;;;21.17;41.90;101959.75;5014592;28;20091;-68
2023/05/28 00:39:33;;;;;;;9.40;4.47;;;;;;;21.20;41.80;101961.31;5012237;28;20065;-67
2023/05/28 00:42:02;;;;;;;7.73;4.57;;;;;;;21.18;41.74;101965.91;5004695;28;20030;-67
2023/05/28 00:44:29;;;;;;;8.20;4.95;;;;;;;21.19;42.24;101970.25;5004928;28;20298;-69
2023/05/28 00:46:55;;;;;;;9.55;4.78;;;;;;;21.18;42.04;101974.69;5006972;28;20413;-68
2023/05/28 00:49:21;;;;;;;8.50;4.90;;;;;;;21.16;41.93;101965.19;5011166;28;20025;-68
2023/05/28 00:51:47;;;;;;;9.05;4.72;;;;;;;21.15;41.79;101964.31;5018617;28;20052;-68
2023/05/28 00:54:12;;;;;;;8.52;4.47;;;;;;;21.15;41.98;101963.47;5015846;28;20960;-68
2023/05/28 00:56:37;;;;;;;10.03;4.87;;;;;;;21.17;41.98;101967.72;5008202;28;20029;-67
2023/05/28 00:59:04;;;;;;;9.85;4.75;;;;;;;21.15;42.02;101960.84;5023292;28;20262;-69
2023/05/28 01:01:29;;;;;;;7.82;4.90;;;;;;;21.13;41.73;101960.13;5004522;28;20037;-69
2023/05/28 01:03:55;;;;;;;9.18;4.95;;;;;;;21.16;41.82;101959.88;5012336;28;20037;-66
2023/05/28 01:06:21;;;;;;;8.60;4.75;;;;;;;21.15;41.77;101958.19;5023959;28;20034;-67
2023/05/28 01:08:47;;;;;;;9.13;4.80;;;;;;;21.13;41.96;101954.81;5020459;28;20100;-67
2023/05/28 01:11:17;;;;;;;7.55;4.50;;;;;;;21.13;41.70;101955.66;5019099;28;20465;-67
2023/05/28 01:13:44;;;;;;;7.35;3.90;;;;;;;21.12;41.61;101961.91;5016190;28;20037;-68
2023/05/28 01:16:10;;;;;;;9.68;4.70;;;;;;;21.13;41.77;101954.81;5009620;28;20050;-67
2023/05/28 01:18:39;;;;;;;9.15;4.93;;;;;;;21.12;41.77;101955.75;5006593;28;20030;-67
2023/05/28 01:21:06;;;;;;;8.18;4.78;;;;;;;21.12;41.73;101959.25;5015582;28;20034;-67
2023/05/28 01:23:40;;;;;;;9.20;4.70;;;;;;;21.12;41.80;101953.13;5015111;28;20445;-67
2023/05/28 01:26:07;;;;;;;10.35;5.00;;;;;;;21.12;41.59;101953.13;5016653;28;20083;-67
2023/05/28 01:28:32;;;;;;;7.30;4.35;;;;;;;21.11;41.80;101954.94;5014712;28;20030;-67
2023/05/28 01:30:58;;;;;;;8.50;4.30;;;;;;;21.13;41.63;101960.94;5009815;28;20109;-68
2023/05/28 01:33:24;;;;;;;9.55;4.75;;;;;;;21.12;41.63;101961.06;5004438;28;20068;-67
2023/05/28 01:35:51;;;;;;;8.70;4.78;;;;;;;21.10;41.74;101955.03;5013121;28;20057;-67
2023/05/28 01:38:18;;;;;;;8.38;4.70;;;;;;;21.10;41.65;101966.47;5021017;28;20041;-67
2023/05/28 01:40:46;;;;;;;6.80;4.47;;;;;;;21.08;41.82;101957.81;5010126;28;20080;-68
2023/05/28 01:43:11;;;;;;;8.88;4.40;;;;;;;21.10;41.94;101965.66;5011544;28;20065;-67
2023/05/28 01:45:37;;;;;;;9.25;4.75;;;;;;;21.09;41.69;101953.34;5013685;28;20076;-68
2023/05/28 01:48:03;;;;;;;8.23;4.63;;;;;;;21.08;41.45;101957.81;5007114;28;20029;-68
2023/05/28 01:50:30;;;;;;;8.95;5.22;;;;;;;21.09;41.62;101959.47;5013962;28;20081;-67
2023/05/28 01:52:55;;;;;;;9.35;4.78;;;;;;;21.10;41.56;101963.00;5010311;28;20041;-68
2023/05/28 01:55:20;;;;;;;8.25;4.28;;;;;;;21.07;41.66;101955.28;5006516;28;20037;-68
2023/05/28 01:57:46;;;;;;;8.35;5.15;;;;;;;21.09;41.66;101964.78;5014549;28;20358;-68
2023/05/28 02:00:11;;;;;;;7.20;4.25;;;;;;;21.07;41.67;101964.06;5003164;28;20496;-69
2023/05/28 02:02:37;;;;;;;8.20;4.55;;;;;;;21.08;41.63;101956.94;5008643;28;20034;-67
2023/05/28 02:05:03;;;;;;;9.27;4.40;;;;;;;21.06;41.75;101945.63;5009154;28;20081;-69
2023/05/28 02:07:29;;;;;;;8.10;4.68;;;;;;;21.08;41.65;101956.94;5005544;28;20037;-68
2023/05/28 02:09:55;;;;;;;8.50;4.28;;;;;;;21.07;41.77;101952.63;5012394;28;20091;-68
2023/05/28 02:12:20;;;;;;;8.88;4.53;;;;;;;21.07;41.58;101950.81;5013601;28;20026;-68
2023/05/28 02:14:45;;;;;;;9.32;5.95;;;;;;;21.05;41.45;101951.91;5008618;28;20386;-69
2023/05/28 02:17:12;;;;;;;7.47;4.13;;;;;;;21.06;41.58;101953.56;5020931;28;20052;-66
2023/05/28 02:19:37;;;;;;;9.02;4.90;;;;;;;21.03;41.72;101944.06;5015748;28;20278;-68
2023/05/28 02:22:10;;;;;;;8.60;3.90;;;;;;;21.05;41.68;101943.97;5019280;28;20140;-68
2023/05/28 02:24:35;;;;;;;7.93;4.10;;;;;;;21.02;41.53;101940.56;5022522;28;20551;-69
2023/05/28 02:27:01;;;;;;;8.95;4.70;;;;;;;21.04;41.70;101935.13;5003237;28;20075;-68
2023/05/28 02:29:26;;;;;;;8.13;4.20;;;;;;;21.05;41.46;101938.66;5004839;28;20042;-67
2023/05/28 02:31:52;;;;;;;6.57;4.07;;;;;;;21.04;41.55;101936.97;5017795;28;20061;-68
2023/05/28 02:34:17;;;;;;;8.10;4.50;;;;;;;21.04;41.67;101931.66;5012668;28;20127;-67
2023/05/28 02:36:43;;;;;;;8.50;4.55;;;;;;;21.04;41.52;101929.00;5003705;28;20838;-67
2023/05/28 02:39:10;;;;;;;8.00;4.53;;;;;;;21.01;41.71;101922.13;5004452;28;20034;-68
2023/05/28 02:41:35;;;;;;;7.93;4.82;;;;;;;21.00;41.76;101929.25;5011633;28;20076;-69
2023/05/28 02:44:00;;;;;;;9.88;4.78;;;;;;;21.01;41.59;101938.03;5008768;28;20492;-68
2023/05/28 02:46:26;;;;;;;7.23;4.23;;;;;;;21.01;41.63;101943.31;5012448;28;20037;-68
2023/05/28 02:48:51;;;;;;;8.87;4.50;;;;;;;21.01;41.59;101941.53;5017411;28;20366;-68
2023/05/28 02:51:16;;;;;;;7.10;4.30;;;;;;;21.02;41.84;101942.38;5017808;28;20345;-69
2023/05/28 02:53:41;;;;;;;8.17;4.43;;;;;;;21.02;41.32;101940.56;5020281;28;20275;-68
2023/05/28 02:56:07;;;;;;;8.50;4.50;;;;;;;21.01;41.58;101944.19;5011025;28;20751;-68
2023/05/28 02:58:32;;;;;;;7.10;4.25;;;;;;;21.00;41.34;101941.66;5002696;28;20268;-68
2023/05/28 03:00:57;;;;;;;8.33;4.27;;;;;;;21.00;41.17;101939.84;5002278;28;20058;-68
2023/05/28 03:03:22;;;;;;;8.20;4.47;;;;;;;20.99;41.36;101940.78;5002217;28;20771;-67
2023/05/28 03:05:49;;;;;;;7.00;4.55;;;;;;;21.01;41.71;101952.16;5015206;28;20061;-67
2023/05/28 03:08:14;;;;;;;7.15;4.15;;;;;;;20.98;41.70;101947.06;5007617;28;20033;-67
2023/05/28 03:10:39;;;;;;;8.52;4.18;;;;;;;20.96;41.55;101946.31;5018240;28;20445;-67
2023/05/28 03:13:05;;;;;;;9.93;4.55;;;;;;;21.00;41.67;101946.97;5008185;28;20045;-68
2023/05/28 03:15:31;;;;;;;9.13;4.40;;;;;;;20.98;41.68;101951.50;5008964;28;20041;-68
2023/05/28 03:17:56;;;;;;;7.75;4.38;;;;;;;20.98;41.39;101941.78;5012384;28;20381;-68
2023/05/28 03:20:21;;;;;;;6.43;3.60;;;;;;;20.98;41.48;101941.78;5011638;28;20041;-69
2023/05/28 03:22:48;;;;;;;7.70;4.40;;;;;;;20.94;41.53;101937.66;5012825;28;21036;-69
2023/05/28 03:25:14;;;;;;;6.53;4.10;;;;;;;20.96;41.43;101938.38;5012731;28;20267;-67
2023/05/28 03:27:39;;;;;;;9.50;4.25;;;;;;;20.96;41.61;101941.03;5005703;28;20040;-68
2023/05/28 03:30:07;;;;;;;9.23;4.38;;;;;;;20.95;41.36;101935.84;5002659;28;20057;-69
2023/05/28 03:32:33;;;;;;;8.25;4.13;;;;;;;20.94;41.35;101937.66;5001688;28;20038;-68
2023/05/28 03:34:58;;;;;;;8.02;4.50;;;;;;;20.94;41.53;101934.19;5004566;28;20371;-69
2023/05/28 03:37:24;;;;;;;7.95;4.57;;;;;;;20.93;41.36;101932.47;5016683;28;20030;-68
2023/05/28 03:39:49;;;;;;;6.95;4.30;;;;;;;20.91;41.51;101939.72;5011182;28;20033;-68
2023/05/28 03:42:15;;;;;;;6.45;4.20;;;;;;;20.94;41.46;101942.97;5020927;28;20029;-68
2023/05/28 03:44:40;;;;;;;8.18;4.07;;;;;;;20.92;41.31;101938.72;5016319;28;20030;-68
2023/05/28 03:47:06;;;;;;;7.25;3.92;;;;;;;20.94;41.35;101939.47;5012191;28;20068;-68
2023/05/28 03:49:31;;;;;;;7.93;3.97;;;;;;;20.92;41.34;101944.88;5001941;28;20084;-68
2023/05/28 03:51:57;;;;;;;8.57;3.88;;;;;;;20.94;41.14;101958.84;5013845;28;20073;-69
2023/05/28 03:54:22;;;;;;;9.75;4.40;;;;;;;20.94;41.42;101958.84;5021368;28;20041;-68
2023/05/28 03:56:47;;;;;;;8.05;4.13;;;;;;;20.93;41.35;101956.31;5018091;28;20080;-68
2023/05/28 03:59:12;;;;;;;8.13;4.10;;;;;;;20.92;41.27;101951.97;5012467;28;20034;-67
2023/05/28 04:01:38;;;;;;;7.68;3.80;;;;;;;20.93;41.33;101959.81;5018984;28;20034;-67
2023/05/28 04:04:03;;;;;;;8.43;4.77;;;;;;;20.92;41.27;101957.28;5017956;28;20034;-67
2023/05/28 04:06:30;;;;;;;9.98;4.07;;;;;;;20.90;41.24;101948.59;5016200;28;20714;-67
2023/05/28 04:08:56;;;;;;;7.88;4.07;;;;;;;20.90;41.36;101953.91;5015454;28;20057;-67
2023/05/28 04:11:24;;;;;;;11.35;3.92;;;;;;;20.91;41.69;101961.72;5012761;28;20060;-67
2023/05/28 04:13:53;;;;;;;7.90;4.20;;;;;;;20.90;41.31;101960.03;5013021;28;20050;-67
2023/05/28 04:16:22;;;;;;;6.97;3.90;;;;;;;20.89;41.29;101955.72;5015702;28;20045;-68
2023/05/28 04:18:48;;;;;;;7.43;4.00;;;;;;;20.90;41.37;101956.56;5008698;28;20044;-68
2023/05/28 04:21:13;;;;;;;7.97;4.20;;;;;;;20.90;41.36;101967.16;5012994;28;20030;-68
2023/05/28 04:23:38;;;;;;;7.27;3.87;;;;;;;20.90;41.45;101970.63;5007374;28;20036;-68
2023/05/28 04:26:06;;;;;;;7.60;3.83;;;;;;;20.89;41.39;101970.78;5010187;28;20264;-68
2023/05/28 04:28:33;;;;;;;6.45;3.80;;;;;;;20.88;41.47;101969.06;5008138;28;20275;-67
2023/05/28 04:31:00;;;;;;;6.47;3.80;;;;;;;20.86;41.31;101966.53;5013563;28;20312;-67
2023/05/28 04:33:28;;;;;;;8.55;4.50;;;;;;;20.86;41.53;101971.00;5008435;28;20088;-68
2023/05/28 04:35:54;;;;;;;8.30;3.92;;;;;;;20.87;41.50;101962.09;5015973;28;20033;-68
2023/05/28 04:38:20;;;;;;;8.00;4.32;;;;;;;20.87;41.44;101975.31;5019036;28;20029;-67
2023/05/28 04:40:45;;;;;;;8.90;4.07;;;;;;;20.88;41.44;101977.03;5011789;28;20473;-67
2023/05/28 04:43:11;;;;;;;7.88;3.90;;;;;;;20.87;41.73;101981.50;5020615;28;20080;-68
2023/05/28 04:45:37;;;;;;;6.78;4.10;;;;;;;20.87;41.47;101984.16;5010008;28;20034;-69
2023/05/28 04:48:03;;;;;;;7.22;3.92;;;;;;;20.84;41.59;101979.06;5021962;28;20040;-67
2023/05/28 04:50:29;;;;;;;8.02;4.03;;;;;;;20.86;41.71;101978.97;5013934;28;20064;-68
2023/05/28 04:52:54;;;;;;;8.82;4.03;;;;;;;20.88;41.51;101985.81;5020457;28;20116;-68
2023/05/28 04:55:20;;;;;;;9.60;4.15;;;;;;;20.86;41.41;101982.44;5016755;28;20389;-68
2023/05/28 04:57:45;;;;;;;7.95;3.75;;;;;;;20.88;41.52;101990.28;5015219;28;20112;-67
2023/05/28 05:00:14;;;;;;;7.88;3.58;;;;;;;20.87;41.68;101985.94;5009567;28;20116;-67
2023/05/28 05:02:41;;;;;;;9.73;3.67;;;;;;;20.87;41.46;101984.16;5015504;28;20037;-68
2023/05/28 05:05:07;;;;;;;8.93;4.32;;;;;;;20.86;41.65;101982.44;5015498;28;20034;-68
2023/05/28 05:07:36;;;;;;;8.45;4.20;;;;;;;20.86;41.60;101971.00;5014550;28;20065;-67
2023/05/28 05:10:02;;;;;;;8.40;3.90;;;;;;;20.87;41.43;101989.44;5017965;28;20535;-69
2023/05/28 05:12:28;;;;;;;8.25;4.10;;;;;;;20.87;41.59;101985.94;5013636;28;20410;-68
2023/05/28 05:14:53;;;;;;;6.47;3.55;;;;;;;20.87;41.88;101983.28;5018740;28;20021;-67
2023/05/28 05:17:18;;;;;;;7.65;3.67;;;;;;;20.86;41.64;101993.03;5013951;28;20049;-67
2023/05/28 05:19:43;;;;;;;8.30;4.17;;;;;;;20.87;41.71;101989.44;5004565;28;20530;-69
2023/05/28 05:22:09;;;;;;;8.20;4.15;;;;;;;20.87;41.65;101993.88;5005898;28;20287;-68
2023/05/28 05:24:34;;;;;;;7.10;3.92;;;;;;;20.86;41.61;101990.38;5013979;28;20037;-68
2023/05/28 05:26:59;;;;;;;7.20;3.83;;;;;;;20.84;41.59;101990.50;5015965;28;20034;-68
2023/05/28 05:29:25;;;;;;;7.70;3.88;;;;;;;20.85;42.00;101999.28;5014549;28;20655;-67
2023/05/28 05:31:50;;;;;;;8.65;4.22;;;;;;;20.84;41.69;101984.38;5008490;28;20044;-68
2023/05/28 05:34:16;;;;;;;8.38;3.90;;;;;;;20.86;41.61;101993.03;5013655;28;20101;-68
2023/05/28 05:36:41;;;;;;;7.57;3.90;;;;;;;20.84;41.82;101992.31;5012825;28;20036;-68
2023/05/28 05:39:06;;;;;;;7.80;4.10;;;;;;;20.87;41.85;101996.53;5016796;28;20037;-68
2023/05/28 05:41:31;;;;;;;8.30;3.90;;;;;;;20.86;41.86;102000.16;5011749;28;20025;-68
2023/05/28 05:43:57;;;;;;;8.40;3.80;;;;;;;20.83;41.66;101994.09;5021046;28;20040;-68
2023/05/28 05:46:22;;;;;;;9.23;4.53;;;;;;;20.82;41.90;102002.16;5015300;28;20033;-69
2023/05/28 05:48:47;;;;;;;7.38;3.67;;;;;;;20.82;41.96;102003.03;5013890;28;20036;-68
2023/05/28 05:51:18;;;;;;;8.77;3.88;;;;;;;20.82;41.99;102000.38;5002856;28;20030;-68
2023/05/28 05:53:43;;;;;;;9.20;3.60;;;;;;;20.84;41.95;102008.22;5004093;28;20524;-69
2023/05/28 05:56:09;;;;;;;8.43;4.00;;;;;;;20.84;42.12;102011.69;5003349;28;20116;-68
2023/05/28 05:58:35;;;;;;;8.20;4.10;;;;;;;20.84;42.38;102009.06;5006831;28;20120;-68
2023/05/28 06:01:00;;;;;;;7.05;3.80;;;;;;;20.84;42.16;102005.56;5022903;28;20116;-69
2023/05/28 06:03:27;;;;;;;8.50;3.97;;;;;;;20.82;42.30;102012.75;5022954;28;20037;-69
2023/05/28 06:05:52;;;;;;;6.50;3.55;;;;;;;20.81;42.42;102009.28;5015666;28;20030;-68
2023/05/28 06:08:18;;;;;;;8.68;3.38;;;;;;;20.82;42.17;102008.31;5010362;28;20034;-68
2023/05/28 06:10:43;;;;;;;7.32;3.97;;;;;;;20.80;42.51;102001.44;5005848;28;20477;-69
2023/05/28 06:13:08;;;;;;;7.93;3.60;;;;;;;20.80;42.32;102009.38;5020941;28;20193;-67
2023/05/28 06:15:34;;;;;;;8.50;3.40;;;;;;;20.81;42.31;102005.78;5024257;28;20339;-68
2023/05/28 06:18:02;;;;;;;7.07;3.80;;;;;;;20.81;42.33;102003.16;5011522;28;21202;-68
2023/05/28 06:20:28;;;;;;;7.13;3.60;;;;;;;20.82;42.32;102013.63;5018365;28;20037;-68
2023/05/28 06:22:53;;;;;;;7.55;3.83;;;;;;;20.82;42.36;102007.47;5017474;28;20088;-68
2023/05/28 06:25:21;;;;;;;8.77;3.63;;;;;;;20.81;42.53;102006.63;5016828;28;20040;-67
2023/05/28 06:27:46;;;;;;;8.60;3.35;;;;;;;20.84;42.68;102005.56;5013197;28;20037;-67
2023/05/28 06:30:12;;;;;;;10.70;3.88;;;;;;;20.83;42.45;101999.41;5010516;28;20034;-67
2023/05/28 06:32:37;;;;;;;8.88;3.80;;;;;;;20.83;42.40;101990.63;5014971;28;20033;-67
2023/05/28 06:35:02;;;;;;;7.03;3.28;;;;;;;20.83;42.61;101993.28;5013275;28;20037;-69
2023/05/28 06:37:28;;;;;;;7.45;3.20;;;;;;;20.83;42.93;101995.91;5003269;28;20041;-68
2023/05/28 06:39:53;;;;;;;10.90;3.70;;;;;;;20.82;42.61;102003.03;5011148;28;20550;-67
2023/05/28 06:42:18;;;;;;;7.03;3.33;;;;;;;20.80;43.51;102004.09;5008067;28;20490;-68
2023/05/28 06:44:43;;;;;;;6.27;3.23;;;;;;;20.75;43.79;101993.00;5009332;28;20275;-68
2023/05/28 06:47:09;;;;;;;7.80;3.30;;;;;;;20.69;43.97;101985.50;5011443;28;20366;-67
2023/05/28 06:49:35;;;;;;;7.25;3.40;;;;;;;20.75;43.93;101993.84;5009014;28;20266;-68
2023/05/28 06:52:00;;;;;;;8.27;3.30;;;;;;;20.76;44.14;101995.53;5018688;28;20060;-68
2023/05/28 06:54:25;;;;;;;8.00;3.47;;;;;;;20.73;44.27;101992.25;5012311;28;20564;-68
2023/05/28 06:56:50;;;;;;;10.50;4.73;;;;;;;20.78;44.39;102004.22;5018168;28;20274;-69
2023/05/28 06:59:16;;;;;;;7.68;3.22;;;;;;;20.78;44.77;102000.72;5005608;28;20299;-69
2023/05/28 07:01:41;;;;;;;7.27;3.07;;;;;;;20.78;44.43;101995.44;5019839;28;20103;-67
2023/05/28 07:04:07;;;;;;;8.80;3.50;;;;;;;20.79;44.45;102003.25;5011947;28;20263;-69
2023/05/28 07:06:33;;;;;;;9.10;3.50;;;;;;;20.82;44.65;101999.50;5012809;28;20329;-68
2023/05/28 07:08:59;;;;;;;7.38;3.50;;;;;;;20.81;44.68;102003.16;5015532;28;20456;-68
2023/05/28 07:11:26;;;;;;;8.40;3.60;;;;;;;20.83;44.57;102006.50;5012712;28;20026;-68
2023/05/28 07:13:52;;;;;;;8.77;3.85;;;;;;;20.81;44.90;102003.97;5001783;28;20030;-67
2023/05/28 07:16:17;;;;;;;6.38;3.42;;;;;;;20.80;44.96;102006.75;5006225;28;20655;-66
2023/05/28 07:18:43;;;;;;;6.30;3.47;;;;;;;20.81;44.94;102009.28;5000458;28;20034;-66
2023/05/28 07:21:08;;;;;;;12.53;3.83;;;;;;;20.97;44.41;102003.66;5009074;28;20083;-66
2023/05/28 07:23:33;;;;;;;8.57;3.55;;;;;;;21.06;44.21;102002.16;5012552;28;20298;-67
2023/05/28 07:25:58;;;;;;;7.68;3.13;;;;;;;21.12;44.31;102016.72;5013016;28;20033;-68
2023/05/28 07:28:24;;;;;;;6.10;2.92;;;;;;;21.16;44.28;102015.53;5004046;28;20034;-67
2023/05/28 07:30:49;;;;;;;7.33;3.47;;;;;;;21.19;44.20;102017.97;5012988;28;20171;-68
2023/05/28 07:33:15;;;;;;;6.05;2.80;;;;;;;21.21;43.96;102029.28;5019015;28;20360;-69
2023/05/28 07:35:41;;;;;;;9.13;3.25;;;;;;;21.20;44.10;102017.84;5010207;28;20079;-66
2023/05/28 07:38:07;;;;;;;7.72;3.30;;;;;;;21.21;43.83;102008.09;5004971;28;20030;-67
2023/05/28 07:40:32;;;;;;;7.88;3.10;;;;;;;21.24;44.12;102007.84;5014469;28;20030;-66
2023/05/28 07:42:57;;;;;;;5.68;3.05;;;;;;;21.27;44.33;102010.28;5016390;28;20056;-67
2023/05/28 07:45:23;;;;;;;9.43;3.33;;;;;;;21.26;44.25;102008.56;5014921;28;20044;-65
2023/05/28 07:47:48;;;;;;;9.43;3.03;;;;;;;21.28;44.35;102011.94;5000889;28;20021;-66
2023/05/28 07:50:13;;;;;;;8.47;3.17;;;;;;;21.26;44.10;102008.56;5000713;28;20267;-67
2023/05/28 07:52:40;;;;;;;8.60;3.20;;;;;;;21.28;44.24;102008.44;5010587;28;20774;-66
2023/05/28 07:55:07;;;;;;;6.60;3.00;;;;;;;21.27;44.44;102004.97;5020415;28;20033;-65
2023/05/28 07:57:32;;;;;;;7.20;3.10;;;;;;;21.28;44.36;102006.63;5018140;28;20026;-67
2023/05/28 08:00:00;;;;;;;7.78;2.95;;;;;;;21.29;44.00;102010.16;5006058;28;20034;-66
2023/05/28 08:02:25;;;;;;;6.88;3.10;;;;;;;21.33;44.31;102014.25;5019472;28;20115;-66
2023/05/28 08:04:51;;;;;;;6.90;3.03;;;;;;;21.37;44.04;102010.41;5019094;28;20037;-68
2023/05/28 08:07:16;;;;;;;8.32;3.85;;;;;;;21.37;44.51;102016.53;5001609;28;20192;-67
2023/05/28 08:09:41;;;;;;;6.32;2.90;;;;;;;21.38;43.96;102010.28;5002378;28;20493;-66
2023/05/28 08:12:07;;;;;;;7.82;2.90;;;;;;;21.40;43.64;102009.34;5010604;28;20077;-70
2023/05/28 08:14:33;;;;;;;7.57;3.05;;;;;;;21.43;43.93;102009.06;5005037;28;20471;-68
2023/05/28 08:16:58;;;;;;;7.20;3.22;;;;;;;21.44;43.80;102002.81;5022064;28;20099;-68
2023/05/28 08:19:23;;;;;;;8.82;3.90;;;;;;;21.45;43.19;102009.81;5013892;28;20038;-69
2023/05/28 08:21:49;;;;;;;7.88;4.00;;;;;;;21.43;43.63;102009.06;5006464;28;20025;-68
2023/05/28 08:24:14;;;;;;;10.27;4.27;;;;;;;21.38;43.91;102007.63;5022335;28;20025;-66
2023/05/28 08:26:40;;;;;;;14.15;5.57;;;;;;;21.35;44.19;102010.53;5020105;28;20997;-67
2023/05/28 08:29:05;;;;;;;9.10;4.90;;;;;;;21.32;44.02;102007.28;5012248;28;20033;-66
2023/05/28 08:31:33;;;;;;;10.70;5.28;;;;;;;21.27;43.99;102009.41;5020215;28;20036;-68
2023/05/28 08:33:59;;;;;;;12.02;5.05;;;;;;;21.27;43.89;102004.09;5022793;28;20041;-68
2023/05/28 08:36:24;;;;;;;13.48;4.43;;;;;;;21.34;44.09;102010.63;5014073;28;20038;-71
2023/05/28 08:38:50;;;;;;;10.35;5.13;;;;;;;21.33;44.32;102007.16;5020601;28;20030;-66
2023/05/28 08:41:15;;;;;;;11.80;5.28;;;;;;;21.30;44.28;102007.38;5021180;28;20042;-63
2023/05/28 08:43:40;;;;;;;14.45;5.10;;;;;;;21.29;44.04;102008.34;5003804;28;20034;-65
2023/05/28 08:46:06;;;;;;;9.82;5.25;;;;;;;21.25;44.11;102001.56;5006337;28;20029;-64
2023/05/28 08:48:34;;;;;;;12.10;5.25;;;;;;;21.22;44.54;101999.19;5021369;28;20969;-65
2023/05/28 08:51:00;;;;;;;13.30;5.70;;;;;;;21.23;44.42;102003.50;5023322;28;20029;-65
2023/05/28 08:53:30;;;;;;;12.15;5.57;;;;;;;21.22;44.20;101993.00;5018060;28;20534;-67
2023/05/28 08:55:55;;;;;;;30.52;7.32;;;;;;;21.23;44.11;101997.34;5009674;28;20041;-66
2023/05/28 08:58:21;;;;;;;14.23;5.47;;;;;;;21.23;43.86;101992.91;5003543;28;20037;-66
2023/05/28 09:00:49;;;;;;;17.67;5.68;;;;;;;21.22;44.21;101987.72;5003347;28;20096;-66
2023/05/28 09:03:15;;;;;;;14.40;4.40;;;;;;;21.29;44.13;101986.28;5005880;28;20084;-66
2023/05/28 09:05:40;;;;;;;15.73;4.30;;;;;;;21.32;44.14;101980.75;5008995;28;20025;-67
2023/05/28 09:08:10;;;;;;;14.45;4.95;;;;;;;21.37;44.29;101984.72;5006000;28;20037;-65
2023/05/28 09:10:37;;;;;;;13.55;5.00;;;;;;;21.35;43.86;101980.53;5011217;28;20026;-69
2023/05/28 09:13:04;;;;;;;17.02;4.68;;;;;;;21.45;43.39;101976.19;5012618;28;20037;-69
2023/05/28 09:15:30;;;;;;;14.10;3.70;;;;;;;21.52;42.66;101984.53;5004546;28;20033;-68
2023/05/28 09:17:58;;;;;;;13.18;3.78;;;;;;;21.55;42.25;101984.28;5023078;28;20049;-69
2023/05/28 09:20:23;;;;;;;11.32;3.72;;;;;;;21.57;42.02;101979.72;5013636;28;20036;-70
2023/05/28 09:23:06;;;;;;;10.90;3.80;;;;;;;21.58;42.65;101978.75;5008943;28;20026;-65
2023/05/28 09:25:36;;;;;;;10.98;4.20;;;;;;;21.53;42.74;101980.91;5013138;28;20030;-67
2023/05/28 09:28:02;;;;;;;9.48;3.97;;;;;;;21.51;42.57;101985.50;5015036;28;20125;-64
2023/05/28 09:30:29;;;;;;;12.48;4.10;;;;;;;21.44;42.50;101974.47;5003558;28;20029;-66
2023/05/28 09:33:01;;;;;;;9.25;3.53;;;;;;;21.44;42.53;101982.44;5008876;28;20076;-64
2023/05/28 09:35:29;;;;;;;7.43;3.53;;;;;;;21.44;42.42;101977.13;5013428;28;20040;-65
2023/05/28 09:38:11;;;;;;;9.18;3.70;;;;;;;21.36;42.53;101988.34;5012350;28;20036;-66
2023/05/28 09:40:41;;;;;;;11.32;3.45;;;;;;;21.37;42.51;101975.94;5010489;28;20037;-67
2023/05/28 09:43:07;;;;;;;8.05;3.45;;;;;;;21.34;42.21;101978.81;5010780;28;20037;-65
2023/05/28 09:45:33;;;;;;;10.32;3.63;;;;;;;21.31;42.11;101971.94;5017276;28;20208;-67
2023/05/28 09:47:59;;;;;;;11.63;3.80;;;;;;;21.28;42.37;101974.81;5019013;28;20037;-65
2023/05/28 09:50:24;;;;;;;8.50;3.88;;;;;;;21.28;42.31;101979.28;5008005;28;20042;-66
2023/05/28 09:52:54;;;;;;;7.22;3.10;;;;;;;21.21;41.98;101973.63;5012986;28;20182;-65
2023/05/28 09:55:23;;;;;;;9.68;3.58;;;;;;;21.20;42.04;101971.91;5015807;28;20034;-67
2023/05/28 09:57:57;;;;;;;10.02;3.63;;;;;;;21.21;42.47;101970.97;5018993;28;20116;-66
2023/05/28 10:00:26;;;;;;;;;;;;;;;21.28;42.37;101972.16;5015500;28;20108;-64
2023/05/28 10:03:11;;;;;;;9.38;3.42;;;;;;;21.26;42.56;101967.97;5011380;28;19927;-65
2023/05/28 10:05:40;;;;;;;7.53;3.13;;;;;;;21.22;41.61;101963.84;5011938;28;20156;-64
2023/05/28 10:08:06;;;;;;;8.40;3.83;;;;;;;21.18;41.32;101965.91;5007505;28;20041;-65
2023/05/28 10:10:32;;;;;;;10.05;3.25;;;;;;;21.17;41.85;101964.19;5017221;28;20386;-64
2023/05/28 10:12:58;;;;;;;8.00;3.15;;;;;;;21.17;42.68;101965.06;5003109;28;20042;-65
2023/05/28 10:15:24;;;;;;;6.88;3.33;;;;;;;21.15;42.24;101963.47;5005308;28;20040;-64
2023/05/28 10:17:50;;;;;;;10.57;3.50;;;;;;;21.14;42.00;101964.44;5011794;28;20054;-66
2023/05/28 10:20:16;;;;;;;11.32;4.45;;;;;;;21.15;41.97;101968.78;5009956;28;20091;-66
2023/05/28 10:22:42;;;;;;;8.07;3.58;;;;;;;21.15;41.67;101968.78;5020464;28;20030;-67
2023/05/28 10:25:08;;;;;;;9.20;3.30;;;;;;;21.15;41.92;101969.63;5003759;28;20049;-64
2023/05/28 10:27:42;;;;;;;9.48;3.28;;;;;;;21.15;41.86;101966.97;5010969;28;20029;-65
2023/05/28 10:30:09;;;;;;;9.48;3.40;;;;;;;21.18;42.93;101966.72;5002824;28;20030;-63
2023/05/28 10:32:41;;;;;;;8.00;3.75;;;;;;;21.19;42.84;101970.25;5003762;28;20054;-65
2023/05/28 10:35:10;;;;;;;7.20;3.08;;;;;;;21.19;42.23;101970.25;5005377;28;20088;-68
2023/05/28 10:37:35;;;;;;;8.68;3.17;;;;;;;21.19;41.84;101968.44;5014333;28;20121;-66
2023/05/28 10:40:01;;;;;;;7.22;3.45;;;;;;;21.20;41.70;101963.97;5020861;28;20120;-65
2023/05/28 10:42:27;;;;;;;7.13;3.17;;;;;;;21.20;41.39;101961.31;5021556;28;20389;-64
2023/05/28 10:45:10;;;;;;;7.65;3.35;;;;;;;21.21;41.53;101965.66;5018687;28;20038;-66
2023/05/28 10:47:40;;;;;;;9.07;3.40;;;;;;;21.23;41.71;101970.84;5019362;28;20087;-65
2023/05/28 10:50:08;;;;;;;6.57;3.33;;;;;;;21.21;41.28;101973.63;5020063;28;20038;-65
2023/05/28 10:52:34;;;;;;;8.93;3.20;;;;;;;21.19;41.60;101972.91;5007578;28;20087;-65
2023/05/28 10:55:03;;;;;;;7.50;3.33;;;;;;;21.19;41.30;101976.38;5002276;28;20034;-63
2023/05/28 10:57:41;;;;;;;8.15;3.70;;;;;;;21.20;41.41;101972.78;5002196;28;20041;-63
2023/05/28 11:00:12;;;;;;;7.53;3.38;;;;;;;21.21;40.90;101973.63;5002161;28;20450;-64
2023/05/28 11:02:39;;;;;;;14.35;4.20;;;;;;;21.17;40.84;101972.16;5002129;28;20438;-64
2023/05/28 11:05:05;;;;;;;8.20;4.15;;;;;;;21.16;40.28;101973.97;5012832;28;20033;-65
2023/05/28 11:07:42;;;;;;;9.77;4.22;;;;;;;21.16;40.13;101976.63;5010357;28;20505;-65
2023/05/28 11:10:12;;;;;;;11.18;4.85;;;;;;;21.18;40.62;101971.19;5008261;28;20908;-64
2023/05/28 11:12:39;;;;;;;10.90;4.95;;;;;;;21.19;41.03;101970.25;5021722;28;20041;-66
2023/05/28 11:15:06;;;;;;;12.05;4.95;;;;;;;21.19;40.23;101971.09;5003964;28;20030;-65
2023/05/28 11:17:37;;;;;;;13.27;5.05;;;;;;;21.26;40.72;101968.81;5005067;28;20457;-65
2023/05/28 11:20:03;;;;;;;12.77;4.43;;;;;;;21.42;41.26;101963.16;5003989;28;20077;-66